sensor_id;sensor_type;location;lat;lon;timestamp;temperature;humidity
10123;DHT22;5101;49.038;8.710;2023-07-28T00:02:17;19.40;99.90
10123;DHT22;5101;49.038;8.710;2023-07-28T00:04:42;19.40;99.90
10123;DHT22;5101;49.038;8.710;2023-07-28T00:07:08;19.40;99.90
10123;DHT22;5101;49.038;8.710;2023-07-28T00:09:33;19.40;99.90
10123;DHT22;5101;49.038;8.710;2023-07-28T00:12:00;19.40;99.90
10123;DHT22;5101;49.038;8.710;2023-07-28T00:14:27;19.40;99.90
10123;DHT22;5101;49.038;8.710;2023-07-28T00:16:53;19.40;99.90
10123;DHT22;5101;49.038;8.710;2023-07-28T00:19:20;19.40;99.90
10123;DHT22;5101;49.038;8.710;2023-07-28T00:21:49;19.40;99.90
10123;DHT22;5101;49.038;8.710;2023-07-28T00:24:15;19.40;99.90
10123;DHT22;5101;49.038;8.710;2023-07-28T00:26:41;19.40;99.90
10123;DHT22;5101;49.038;8.710;2023-07-28T00:29:07;19.40;99.90
10123;DHT22;5101;49.038;8.710;2023-07-28T00:31:33;19.40;99.90
10123;DHT22;5101;49.038;8.710;2023-07-28T00:33:59;19.40;99.90
10123;DHT22;5101;49.038;8.710;2023-07-28T00:36:24;19.40;99.90
10123;DHT22;5101;49.038;8.710;2023-07-28T00:38:50;19.40;99.90
10123;DHT22;5101;49.038;8.710;2023-07-28T00:41:15;19.40;99.90
10123;DHT22;5101;49.038;8.710;2023-07-28T00:43:41;19.40;99.90
10123;DHT22;5101;49.038;8.710;2023-07-28T00:46:07;19.40;99.90
10123;DHT22;5101;49.038;8.710;2023-07-28T00:48:33;19.40;99.90
10123;DHT22;5101;49.038;8.710;2023-07-28T00:50:59;19.40;99.90
10123;DHT22;5101;49.038;8.710;2023-07-28T00:53:25;19.40;99.90
10123;DHT22;5101;49.038;8.710;2023-07-28T00:55:51;19.30;99.90
10123;DHT22;5101;49.038;8.710;2023-07-28T00:58:17;19.30;99.90
10123;DHT22;5101;49.038;8.710;2023-07-28T01:00:43;19.30;99.90
10123;DHT22;5101;49.038;8.710;2023-07-28T01:03:08;19.30;99.90
10123;DHT22;5101;49.038;8.710;2023-07-28T01:05:44;19.30;99.90
10123;DHT22;5101;49.038;8.710;2023-07-28T01:08:33;19.30;99.90
10123;DHT22;5101;49.038;8.710;2023-07-28T01:10:59;19.30;99.90
10123;DHT22;5101;49.038;8.710;2023-07-28T01:13:25;19.30;99.90
10123;DHT22;5101;49.038;8.710;2023-07-28T01:15:50;19.20;99.90
10123;DHT22;5101;49.038;8.710;2023-07-28T01:18:16;19.20;99.90
10123;DHT22;5101;49.038;8.710;2023-07-28T01:20:42;19.20;99.90
10123;DHT22;5101;49.038;8.710;2023-07-28T01:23:20;19.20;99.90
10123;DHT22;5101;49.038;8.710;2023-07-28T01:28:25;19.10;99.90
10123;DHT22;5101;49.038;8.710;2023-07-28T01:30:52;19.10;99.90
10123;DHT22;5101;49.038;8.710;2023-07-28T01:33:17;19.10;99.90
10123;DHT22;5101;49.038;8.710;2023-07-28T01:35:43;19.10;99.90
10123;DHT22;5101;49.038;8.710;2023-07-28T01:38:08;19.10;99.90
10123;DHT22;5101;49.038;8.710;2023-07-28T01:40:34;19.00;99.90
10123;DHT22;5101;49.038;8.710;2023-07-28T01:42:59;19.00;99.90
10123;DHT22;5101;49.038;8.710;2023-07-28T01:45:25;19.00;99.90
10123;DHT22;5101;49.038;8.710;2023-07-28T01:47:50;19.00;99.90
10123;DHT22;5101;49.038;8.710;2023-07-28T01:50:16;19.00;99.90
10123;DHT22;5101;49.038;8.710;2023-07-28T01:52:41;19.00;99.90
10123;DHT22;5101;49.038;8.710;2023-07-28T01:55:07;19.00;99.90
10123;DHT22;5101;49.038;8.710;2023-07-28T01:57:33;19.00;99.90
10123;DHT22;5101;49.038;8.710;2023-07-28T01:59:59;19.00;99.90
10123;DHT22;5101;49.038;8.710;2023-07-28T02:02:25;19.00;99.90
10123;DHT22;5101;49.038;8.710;2023-07-28T02:04:50;19.00;99.90
10123;DHT22;5101;49.038;8.710;2023-07-28T02:07:16;19.00;99.90
10123;DHT22;5101;49.038;8.710;2023-07-28T02:09:42;19.00;99.90
10123;DHT22;5101;49.038;8.710;2023-07-28T02:12:07;18.90;99.90
10123;DHT22;5101;49.038;8.710;2023-07-28T02:14:33;18.90;99.90
10123;DHT22;5101;49.038;8.710;2023-07-28T02:16:58;18.90;99.90
10123;DHT22;5101;49.038;8.710;2023-07-28T02:19:24;18.90;99.90
10123;DHT22;5101;49.038;8.710;2023-07-28T02:21:50;18.90;99.90
10123;DHT22;5101;49.038;8.710;2023-07-28T02:24:15;18.80;99.90
10123;DHT22;5101;49.038;8.710;2023-07-28T02:26:41;18.80;99.90
10123;DHT22;5101;49.038;8.710;2023-07-28T02:29:06;18.80;99.90
10123;DHT22;5101;49.038;8.710;2023-07-28T02:31:32;18.80;99.90
10123;DHT22;5101;49.038;8.710;2023-07-28T02:33:57;18.80;99.90
10123;DHT22;5101;49.038;8.710;2023-07-28T02:36:23;18.80;99.90
10123;DHT22;5101;49.038;8.710;2023-07-28T02:38:48;18.80;99.90
10123;DHT22;5101;49.038;8.710;2023-07-28T02:41:14;18.80;99.90
10123;DHT22;5101;49.038;8.710;2023-07-28T02:43:39;18.80;99.90
10123;DHT22;5101;49.038;8.710;2023-07-28T02:46:05;18.70;99.90
10123;DHT22;5101;49.038;8.710;2023-07-28T02:48:30;18.70;99.90
10123;DHT22;5101;49.038;8.710;2023-07-28T02:50:56;18.70;99.90
10123;DHT22;5101;49.038;8.710;2023-07-28T02:53:21;18.70;99.90
10123;DHT22;5101;49.038;8.710;2023-07-28T02:55:47;18.70;99.90
10123;DHT22;5101;49.038;8.710;2023-07-28T02:58:14;18.70;99.90
10123;DHT22;5101;49.038;8.710;2023-07-28T03:00:43;18.70;99.90
10123;DHT22;5101;49.038;8.710;2023-07-28T03:03:10;18.70;99.90
10123;DHT22;5101;49.038;8.710;2023-07-28T03:05:37;18.70;99.90
10123;DHT22;5101;49.038;8.710;2023-07-28T03:08:03;18.70;99.90
10123;DHT22;5101;49.038;8.710;2023-07-28T03:10:28;18.70;99.90
10123;DHT22;5101;49.038;8.710;2023-07-28T03:12:54;18.70;99.90
10123;DHT22;5101;49.038;8.710;2023-07-28T03:15:20;18.70;99.90
10123;DHT22;5101;49.038;8.710;2023-07-28T03:17:50;18.70;99.90
10123;DHT22;5101;49.038;8.710;2023-07-28T03:20:16;18.70;99.90
10123;DHT22;5101;49.038;8.710;2023-07-28T03:22:42;18.70;99.90
10123;DHT22;5101;49.038;8.710;2023-07-28T03:25:08;18.70;99.90
10123;DHT22;5101;49.038;8.710;2023-07-28T03:27:34;18.70;99.90
10123;DHT22;5101;49.038;8.710;2023-07-28T03:30:00;18.70;99.90
10123;DHT22;5101;49.038;8.710;2023-07-28T03:32:25;18.70;99.90
10123;DHT22;5101;49.038;8.710;2023-07-28T03:34:51;18.70;99.90
10123;DHT22;5101;49.038;8.710;2023-07-28T03:37:16;18.70;99.90
10123;DHT22;5101;49.038;8.710;2023-07-28T03:39:42;18.70;99.90
10123;DHT22;5101;49.038;8.710;2023-07-28T03:42:07;18.70;99.90
10123;DHT22;5101;49.038;8.710;2023-07-28T03:44:33;18.70;99.90
10123;DHT22;5101;49.038;8.710;2023-07-28T03:46:59;18.70;99.90
10123;DHT22;5101;49.038;8.710;2023-07-28T03:49:25;18.70;99.90
10123;DHT22;5101;49.038;8.710;2023-07-28T03:51:50;18.70;99.90
10123;DHT22;5101;49.038;8.710;2023-07-28T03:54:16;18.70;99.90
10123;DHT22;5101;49.038;8.710;2023-07-28T03:56:41;18.70;99.90
10123;DHT22;5101;49.038;8.710;2023-07-28T03:59:06;18.70;99.90
10123;DHT22;5101;49.038;8.710;2023-07-28T04:01:32;18.70;99.90
10123;DHT22;5101;49.038;8.710;2023-07-28T04:03:57;18.70;99.90
10123;DHT22;5101;49.038;8.710;2023-07-28T04:06:40;18.70;99.90
10123;DHT22;5101;49.038;8.710;2023-07-28T04:09:07;18.70;99.90
10123;DHT22;5101;49.038;8.710;2023-07-28T04:11:33;18.70;99.90
10123;DHT22;5101;49.038;8.710;2023-07-28T04:13:59;18.70;99.90
10123;DHT22;5101;49.038;8.710;2023-07-28T04:16:24;18.70;99.90
10123;DHT22;5101;49.038;8.710;2023-07-28T04:18:50;18.70;99.90
10123;DHT22;5101;49.038;8.710;2023-07-28T04:21:15;18.70;99.90
10123;DHT22;5101;49.038;8.710;2023-07-28T04:23:41;18.70;99.90
10123;DHT22;5101;49.038;8.710;2023-07-28T04:26:06;18.60;99.90
10123;DHT22;5101;49.038;8.710;2023-07-28T04:28:32;18.60;99.90
10123;DHT22;5101;49.038;8.710;2023-07-28T04:30:57;18.60;99.90
10123;DHT22;5101;49.038;8.710;2023-07-28T04:33:23;18.60;99.90
10123;DHT22;5101;49.038;8.710;2023-07-28T04:35:48;18.70;99.90
10123;DHT22;5101;49.038;8.710;2023-07-28T04:38:14;18.60;99.90
10123;DHT22;5101;49.038;8.710;2023-07-28T04:40:39;18.60;99.90
10123;DHT22;5101;49.038;8.710;2023-07-28T04:43:05;18.60;99.90
10123;DHT22;5101;49.038;8.710;2023-07-28T04:45:30;18.60;99.90
10123;DHT22;5101;49.038;8.710;2023-07-28T04:47:56;18.60;99.90
10123;DHT22;5101;49.038;8.710;2023-07-28T04:50:21;18.70;99.90
10123;DHT22;5101;49.038;8.710;2023-07-28T04:52:47;18.70;99.90
10123;DHT22;5101;49.038;8.710;2023-07-28T04:55:12;18.60;99.90
10123;DHT22;5101;49.038;8.710;2023-07-28T04:57:37;18.70;99.90
10123;DHT22;5101;49.038;8.710;2023-07-28T05:00:03;18.70;99.90
10123;DHT22;5101;49.038;8.710;2023-07-28T05:02:30;18.70;99.90
10123;DHT22;5101;49.038;8.710;2023-07-28T05:04:55;18.70;99.90
10123;DHT22;5101;49.038;8.710;2023-07-28T05:07:21;18.70;99.90
10123;DHT22;5101;49.038;8.710;2023-07-28T05:09:46;18.70;99.90
10123;DHT22;5101;49.038;8.710;2023-07-28T05:12:12;18.80;99.90
10123;DHT22;5101;49.038;8.710;2023-07-28T05:14:37;18.70;99.90
10123;DHT22;5101;49.038;8.710;2023-07-28T05:17:03;18.70;99.90
10123;DHT22;5101;49.038;8.710;2023-07-28T05:19:28;18.80;99.90
10123;DHT22;5101;49.038;8.710;2023-07-28T05:21:54;18.80;99.90
10123;DHT22;5101;49.038;8.710;2023-07-28T05:24:19;18.80;99.90
10123;DHT22;5101;49.038;8.710;2023-07-28T05:26:45;18.80;99.90
10123;DHT22;5101;49.038;8.710;2023-07-28T05:29:10;18.80;99.90
10123;DHT22;5101;49.038;8.710;2023-07-28T05:31:36;18.80;99.90
10123;DHT22;5101;49.038;8.710;2023-07-28T05:34:01;18.80;99.90
10123;DHT22;5101;49.038;8.710;2023-07-28T05:36:27;18.80;99.90
10123;DHT22;5101;49.038;8.710;2023-07-28T05:38:53;18.80;99.90
10123;DHT22;5101;49.038;8.710;2023-07-28T05:41:21;18.80;99.90
10123;DHT22;5101;49.038;8.710;2023-07-28T05:43:47;18.80;99.90
10123;DHT22;5101;49.038;8.710;2023-07-28T05:46:12;18.80;99.90
10123;DHT22;5101;49.038;8.710;2023-07-28T05:48:38;18.80;99.90
10123;DHT22;5101;49.038;8.710;2023-07-28T05:51:03;18.80;99.90
10123;DHT22;5101;49.038;8.710;2023-07-28T05:53:29;18.80;99.90
10123;DHT22;5101;49.038;8.710;2023-07-28T05:55:54;18.80;99.90
10123;DHT22;5101;49.038;8.710;2023-07-28T05:58:20;18.80;99.90
10123;DHT22;5101;49.038;8.710;2023-07-28T06:00:46;18.90;99.90
10123;DHT22;5101;49.038;8.710;2023-07-28T06:03:11;18.80;99.90
10123;DHT22;5101;49.038;8.710;2023-07-28T06:05:40;18.90;99.90
10123;DHT22;5101;49.038;8.710;2023-07-28T06:08:06;18.90;99.90
10123;DHT22;5101;49.038;8.710;2023-07-28T06:10:32;18.90;99.90
10123;DHT22;5101;49.038;8.710;2023-07-28T06:12:58;18.90;99.90
10123;DHT22;5101;49.038;8.710;2023-07-28T06:15:23;18.90;99.90
10123;DHT22;5101;49.038;8.710;2023-07-28T06:17:49;18.90;99.90
10123;DHT22;5101;49.038;8.710;2023-07-28T06:20:14;18.90;99.90
10123;DHT22;5101;49.038;8.710;2023-07-28T06:22:40;18.90;99.90
10123;DHT22;5101;49.038;8.710;2023-07-28T06:25:05;18.90;99.90
10123;DHT22;5101;49.038;8.710;2023-07-28T06:27:31;18.90;99.90
10123;DHT22;5101;49.038;8.710;2023-07-28T06:29:56;18.90;99.90
10123;DHT22;5101;49.038;8.710;2023-07-28T06:32:22;18.90;99.90
10123;DHT22;5101;49.038;8.710;2023-07-28T06:34:49;18.80;99.90
10123;DHT22;5101;49.038;8.710;2023-07-28T06:37:15;18.90;99.90
10123;DHT22;5101;49.038;8.710;2023-07-28T06:39:40;18.90;99.90
10123;DHT22;5101;49.038;8.710;2023-07-28T06:42:07;18.90;99.90
10123;DHT22;5101;49.038;8.710;2023-07-28T06:44:32;18.90;99.90
10123;DHT22;5101;49.038;8.710;2023-07-28T06:46:58;18.90;99.90
10123;DHT22;5101;49.038;8.710;2023-07-28T06:49:23;19.00;99.90
10123;DHT22;5101;49.038;8.710;2023-07-28T06:51:49;18.90;99.90
10123;DHT22;5101;49.038;8.710;2023-07-28T06:54:14;18.90;99.90
10123;DHT22;5101;49.038;8.710;2023-07-28T06:56:40;18.90;99.90
10123;DHT22;5101;49.038;8.710;2023-07-28T06:59:06;18.90;99.90
10123;DHT22;5101;49.038;8.710;2023-07-28T07:01:32;18.90;99.90
10123;DHT22;5101;49.038;8.710;2023-07-28T07:03:58;18.90;99.90
10123;DHT22;5101;49.038;8.710;2023-07-28T07:06:24;18.90;99.90
10123;DHT22;5101;49.038;8.710;2023-07-28T07:08:49;19.00;99.90
10123;DHT22;5101;49.038;8.710;2023-07-28T07:11:15;18.90;99.90
10123;DHT22;5101;49.038;8.710;2023-07-28T07:13:40;19.00;99.90
10123;DHT22;5101;49.038;8.710;2023-07-28T07:16:16;18.90;99.90
10123;DHT22;5101;49.038;8.710;2023-07-28T07:18:42;18.90;99.90
10123;DHT22;5101;49.038;8.710;2023-07-28T07:21:08;19.00;99.90
10123;DHT22;5101;49.038;8.710;2023-07-28T07:23:34;19.00;99.90
10123;DHT22;5101;49.038;8.710;2023-07-28T07:25:59;19.00;99.90
10123;DHT22;5101;49.038;8.710;2023-07-28T07:28:25;19.10;99.90
10123;DHT22;5101;49.038;8.710;2023-07-28T07:30:50;19.10;99.90
10123;DHT22;5101;49.038;8.710;2023-07-28T07:33:16;19.20;99.90
10123;DHT22;5101;49.038;8.710;2023-07-28T07:35:41;19.20;99.90
10123;DHT22;5101;49.038;8.710;2023-07-28T07:38:07;19.20;99.90
10123;DHT22;5101;49.038;8.710;2023-07-28T07:40:35;19.20;99.90
10123;DHT22;5101;49.038;8.710;2023-07-28T07:43:01;19.30;99.90
10123;DHT22;5101;49.038;8.710;2023-07-28T07:45:31;19.30;99.90
10123;DHT22;5101;49.038;8.710;2023-07-28T07:47:58;19.30;99.90
10123;DHT22;5101;49.038;8.710;2023-07-28T07:50:24;19.30;99.90
10123;DHT22;5101;49.038;8.710;2023-07-28T07:52:49;19.40;99.90
10123;DHT22;5101;49.038;8.710;2023-07-28T07:55:15;19.40;99.90
10123;DHT22;5101;49.038;8.710;2023-07-28T07:57:40;19.40;99.90
10123;DHT22;5101;49.038;8.710;2023-07-28T08:00:07;19.40;99.90
10123;DHT22;5101;49.038;8.710;2023-07-28T08:02:33;19.40;99.90
10123;DHT22;5101;49.038;8.710;2023-07-28T08:04:59;19.50;99.90
10123;DHT22;5101;49.038;8.710;2023-07-28T08:07:24;19.50;99.90
10123;DHT22;5101;49.038;8.710;2023-07-28T08:09:50;19.50;99.90
10123;DHT22;5101;49.038;8.710;2023-07-28T08:12:16;19.50;99.90
10123;DHT22;5101;49.038;8.710;2023-07-28T08:14:41;19.60;99.90
10123;DHT22;5101;49.038;8.710;2023-07-28T08:17:08;19.60;99.90
10123;DHT22;5101;49.038;8.710;2023-07-28T08:19:33;19.60;99.90
10123;DHT22;5101;49.038;8.710;2023-07-28T08:22:01;19.60;99.90
10123;DHT22;5101;49.038;8.710;2023-07-28T08:24:26;19.70;99.90
10123;DHT22;5101;49.038;8.710;2023-07-28T08:26:52;19.70;99.90
10123;DHT22;5101;49.038;8.710;2023-07-28T08:29:17;19.80;99.90
10123;DHT22;5101;49.038;8.710;2023-07-28T08:31:43;19.90;99.90
10123;DHT22;5101;49.038;8.710;2023-07-28T08:34:08;19.90;99.90
10123;DHT22;5101;49.038;8.710;2023-07-28T08:36:34;20.00;99.90
10123;DHT22;5101;49.038;8.710;2023-07-28T08:39:00;20.00;99.90
10123;DHT22;5101;49.038;8.710;2023-07-28T08:41:25;20.10;99.90
10123;DHT22;5101;49.038;8.710;2023-07-28T08:43:52;20.20;99.90
10123;DHT22;5101;49.038;8.710;2023-07-28T08:46:20;20.30;99.90
10123;DHT22;5101;49.038;8.710;2023-07-28T08:48:45;20.50;99.90
10123;DHT22;5101;49.038;8.710;2023-07-28T08:51:12;20.70;99.90
10123;DHT22;5101;49.038;8.710;2023-07-28T08:53:38;20.80;99.90
10123;DHT22;5101;49.038;8.710;2023-07-28T08:56:03;21.00;99.90
10123;DHT22;5101;49.038;8.710;2023-07-28T08:58:29;21.10;99.90
10123;DHT22;5101;49.038;8.710;2023-07-28T09:00:55;21.30;99.90
10123;DHT22;5101;49.038;8.710;2023-07-28T09:03:21;21.40;99.90
10123;DHT22;5101;49.038;8.710;2023-07-28T09:05:48;21.50;99.90
10123;DHT22;5101;49.038;8.710;2023-07-28T09:08:17;21.70;99.90
10123;DHT22;5101;49.038;8.710;2023-07-28T09:10:47;21.80;99.90
10123;DHT22;5101;49.038;8.710;2023-07-28T09:13:17;22.10;99.90
10123;DHT22;5101;49.038;8.710;2023-07-28T09:15:44;22.40;99.90
10123;DHT22;5101;49.038;8.710;2023-07-28T09:18:11;22.70;99.90
10123;DHT22;5101;49.038;8.710;2023-07-28T09:20:39;22.80;99.90
10123;DHT22;5101;49.038;8.710;2023-07-28T09:23:05;22.80;99.90
10123;DHT22;5101;49.038;8.710;2023-07-28T09:25:33;23.00;99.90
10123;DHT22;5101;49.038;8.710;2023-07-28T09:27:59;23.10;99.90
10123;DHT22;5101;49.038;8.710;2023-07-28T09:30:25;23.20;99.90
10123;DHT22;5101;49.038;8.710;2023-07-28T09:32:53;23.20;99.90
10123;DHT22;5101;49.038;8.710;2023-07-28T09:35:19;23.20;99.90
10123;DHT22;5101;49.038;8.710;2023-07-28T09:37:48;23.30;99.90
10123;DHT22;5101;49.038;8.710;2023-07-28T09:40:17;23.50;99.90
10123;DHT22;5101;49.038;8.710;2023-07-28T09:42:45;23.40;99.90
10123;DHT22;5101;49.038;8.710;2023-07-28T09:45:15;23.40;99.90
10123;DHT22;5101;49.038;8.710;2023-07-28T09:47:46;23.50;99.90
10123;DHT22;5101;49.038;8.710;2023-07-28T09:50:14;23.40;99.90
10123;DHT22;5101;49.038;8.710;2023-07-28T09:52:46;23.40;99.90
10123;DHT22;5101;49.038;8.710;2023-07-28T09:55:12;23.40;99.90
10123;DHT22;5101;49.038;8.710;2023-07-28T09:57:51;23.50;99.90
10123;DHT22;5101;49.038;8.710;2023-07-28T10:00:17;23.50;99.90
10123;DHT22;5101;49.038;8.710;2023-07-28T10:02:44;23.40;99.90
10123;DHT22;5101;49.038;8.710;2023-07-28T10:05:10;23.40;99.90
10123;DHT22;5101;49.038;8.710;2023-07-28T10:07:39;23.40;99.90
10123;DHT22;5101;49.038;8.710;2023-07-28T10:10:06;23.50;99.90
10123;DHT22;5101;49.038;8.710;2023-07-28T10:12:51;23.50;99.90
10123;DHT22;5101;49.038;8.710;2023-07-28T10:15:19;23.50;99.90
10123;DHT22;5101;49.038;8.710;2023-07-28T10:17:55;23.50;99.90
10123;DHT22;5101;49.038;8.710;2023-07-28T10:20:37;23.30;99.90
10123;DHT22;5101;49.038;8.710;2023-07-28T10:23:05;23.30;99.90
10123;DHT22;5101;49.038;8.710;2023-07-28T10:25:37;23.20;99.90
10123;DHT22;5101;49.038;8.710;2023-07-28T10:28:25;23.00;99.90
10123;DHT22;5101;49.038;8.710;2023-07-28T10:30:55;23.00;99.90
10123;DHT22;5101;49.038;8.710;2023-07-28T10:33:41;22.90;99.90
10123;DHT22;5101;49.038;8.710;2023-07-28T10:36:18;22.80;99.90
10123;DHT22;5101;49.038;8.710;2023-07-28T10:38:47;22.80;99.90
10123;DHT22;5101;49.038;8.710;2023-07-28T10:41:24;22.80;99.90
10123;DHT22;5101;49.038;8.710;2023-07-28T10:43:51;22.90;99.90
10123;DHT22;5101;49.038;8.710;2023-07-28T10:46:18;22.90;99.90
10123;DHT22;5101;49.038;8.710;2023-07-28T10:48:47;22.90;99.90
10123;DHT22;5101;49.038;8.710;2023-07-28T10:51:26;22.90;99.90
10123;DHT22;5101;49.038;8.710;2023-07-28T10:53:56;22.90;99.90
10123;DHT22;5101;49.038;8.710;2023-07-28T10:56:23;22.90;99.90
10123;DHT22;5101;49.038;8.710;2023-07-28T10:59:03;22.90;99.90
10123;DHT22;5101;49.038;8.710;2023-07-28T11:01:36;23.00;99.90
10123;DHT22;5101;49.038;8.710;2023-07-28T11:04:15;22.90;99.90
10123;DHT22;5101;49.038;8.710;2023-07-28T11:06:43;23.00;99.90
10123;DHT22;5101;49.038;8.710;2023-07-28T11:09:09;23.00;99.90
10123;DHT22;5101;49.038;8.710;2023-07-28T11:11:39;23.00;99.90
10123;DHT22;5101;49.038;8.710;2023-07-28T11:14:06;23.00;99.90
10123;DHT22;5101;49.038;8.710;2023-07-28T11:16:41;23.10;99.90
10123;DHT22;5101;49.038;8.710;2023-07-28T11:19:11;23.30;99.90
10123;DHT22;5101;49.038;8.710;2023-07-28T11:21:38;23.30;99.90
10123;DHT22;5101;49.038;8.710;2023-07-28T11:24:04;23.40;99.90
10123;DHT22;5101;49.038;8.710;2023-07-28T11:26:30;23.50;99.90
10123;DHT22;5101;49.038;8.710;2023-07-28T11:28:56;23.50;99.90
10123;DHT22;5101;49.038;8.710;2023-07-28T11:31:25;23.50;99.90
10123;DHT22;5101;49.038;8.710;2023-07-28T11:33:53;23.50;99.90
10123;DHT22;5101;49.038;8.710;2023-07-28T11:36:26;23.50;99.90
10123;DHT22;5101;49.038;8.710;2023-07-28T11:38:53;23.50;99.90
10123;DHT22;5101;49.038;8.710;2023-07-28T11:41:20;23.50;99.90
10123;DHT22;5101;49.038;8.710;2023-07-28T11:43:48;23.50;99.90
10123;DHT22;5101;49.038;8.710;2023-07-28T11:46:33;23.40;99.90
10123;DHT22;5101;49.038;8.710;2023-07-28T11:49:14;23.30;99.90
10123;DHT22;5101;49.038;8.710;2023-07-28T11:51:41;23.40;99.90
10123;DHT22;5101;49.038;8.710;2023-07-28T11:54:14;23.40;99.90
10123;DHT22;5101;49.038;8.710;2023-07-28T11:56:41;23.40;99.90
10123;DHT22;5101;49.038;8.710;2023-07-28T11:59:07;23.40;99.90
10123;DHT22;5101;49.038;8.710;2023-07-28T12:01:33;23.40;99.90
10123;DHT22;5101;49.038;8.710;2023-07-28T12:03:58;23.30;99.90
10123;DHT22;5101;49.038;8.710;2023-07-28T12:06:25;23.30;99.90
10123;DHT22;5101;49.038;8.710;2023-07-28T12:08:51;23.30;99.90
10123;DHT22;5101;49.038;8.710;2023-07-28T12:11:17;23.30;99.90
10123;DHT22;5101;49.038;8.710;2023-07-28T12:13:52;23.10;99.90
10123;DHT22;5101;49.038;8.710;2023-07-28T12:16:40;23.00;99.90
10123;DHT22;5101;49.038;8.710;2023-07-28T12:19:07;22.80;99.90
10123;DHT22;5101;49.038;8.710;2023-07-28T12:21:32;22.60;99.90
10123;DHT22;5101;49.038;8.710;2023-07-28T12:23:58;22.50;99.90
10123;DHT22;5101;49.038;8.710;2023-07-28T12:26:23;22.50;99.90
10123;DHT22;5101;49.038;8.710;2023-07-28T12:28:49;22.50;99.90
10123;DHT22;5101;49.038;8.710;2023-07-28T12:31:14;22.60;99.90
10123;DHT22;5101;49.038;8.710;2023-07-28T12:33:40;22.60;99.90
10123;DHT22;5101;49.038;8.710;2023-07-28T12:36:05;22.60;99.90
10123;DHT22;5101;49.038;8.710;2023-07-28T12:38:31;22.70;99.90
10123;DHT22;5101;49.038;8.710;2023-07-28T12:40:57;22.70;99.90
10123;DHT22;5101;49.038;8.710;2023-07-28T12:43:22;22.80;99.90
10123;DHT22;5101;49.038;8.710;2023-07-28T12:45:49;22.80;99.90
10123;DHT22;5101;49.038;8.710;2023-07-28T12:48:15;22.90;99.90
10123;DHT22;5101;49.038;8.710;2023-07-28T12:50:40;22.90;99.90
10123;DHT22;5101;49.038;8.710;2023-07-28T12:53:06;22.90;99.90
10123;DHT22;5101;49.038;8.710;2023-07-28T12:55:31;22.90;99.90
10123;DHT22;5101;49.038;8.710;2023-07-28T12:57:59;22.90;99.90
10123;DHT22;5101;49.038;8.710;2023-07-28T13:00:25;22.90;99.90
10123;DHT22;5101;49.038;8.710;2023-07-28T13:02:50;22.80;99.90
10123;DHT22;5101;49.038;8.710;2023-07-28T13:05:16;22.80;99.90
10123;DHT22;5101;49.038;8.710;2023-07-28T13:07:42;22.80;99.90
10123;DHT22;5101;49.038;8.710;2023-07-28T13:10:10;22.80;99.90
10123;DHT22;5101;49.038;8.710;2023-07-28T13:12:36;22.80;99.90
10123;DHT22;5101;49.038;8.710;2023-07-28T13:15:02;22.70;99.90
10123;DHT22;5101;49.038;8.710;2023-07-28T13:17:28;22.70;99.90
10123;DHT22;5101;49.038;8.710;2023-07-28T13:19:53;22.70;99.90
10123;DHT22;5101;49.038;8.710;2023-07-28T13:22:19;22.70;99.90
10123;DHT22;5101;49.038;8.710;2023-07-28T13:24:44;22.60;99.90
10123;DHT22;5101;49.038;8.710;2023-07-28T13:27:10;22.60;99.90
10123;DHT22;5101;49.038;8.710;2023-07-28T13:29:35;22.50;99.90
10123;DHT22;5101;49.038;8.710;2023-07-28T13:32:01;22.50;99.90
10123;DHT22;5101;49.038;8.710;2023-07-28T13:34:27;22.50;99.90
10123;DHT22;5101;49.038;8.710;2023-07-28T13:36:53;22.50;99.90
10123;DHT22;5101;49.038;8.710;2023-07-28T13:39:19;22.40;99.90
10123;DHT22;5101;49.038;8.710;2023-07-28T13:41:44;22.40;99.90
10123;DHT22;5101;49.038;8.710;2023-07-28T13:44:10;22.40;99.90
10123;DHT22;5101;49.038;8.710;2023-07-28T13:46:35;22.40;99.90
10123;DHT22;5101;49.038;8.710;2023-07-28T13:49:01;22.40;99.90
10123;DHT22;5101;49.038;8.710;2023-07-28T13:51:26;22.40;99.90
10123;DHT22;5101;49.038;8.710;2023-07-28T13:53:52;22.30;99.90
10123;DHT22;5101;49.038;8.710;2023-07-28T13:56:17;22.30;99.90
10123;DHT22;5101;49.038;8.710;2023-07-28T13:58:43;22.30;99.90
10123;DHT22;5101;49.038;8.710;2023-07-28T14:01:09;22.30;99.90
10123;DHT22;5101;49.038;8.710;2023-07-28T14:03:34;22.30;99.90
10123;DHT22;5101;49.038;8.710;2023-07-28T14:06:00;22.30;99.90
10123;DHT22;5101;49.038;8.710;2023-07-28T14:08:25;22.30;99.90
10123;DHT22;5101;49.038;8.710;2023-07-28T14:10:52;22.30;99.90
10123;DHT22;5101;49.038;8.710;2023-07-28T14:13:17;22.30;99.90
10123;DHT22;5101;49.038;8.710;2023-07-28T14:15:43;22.20;99.90
10123;DHT22;5101;49.038;8.710;2023-07-28T14:18:08;22.20;99.90
10123;DHT22;5101;49.038;8.710;2023-07-28T14:20:34;22.20;99.90
10123;DHT22;5101;49.038;8.710;2023-07-28T14:23:00;22.20;99.90
10123;DHT22;5101;49.038;8.710;2023-07-28T14:25:28;22.20;99.90
10123;DHT22;5101;49.038;8.710;2023-07-28T14:27:54;22.10;99.90
10123;DHT22;5101;49.038;8.710;2023-07-28T14:30:19;22.10;99.90
10123;DHT22;5101;49.038;8.710;2023-07-28T14:32:44;22.00;99.90
10123;DHT22;5101;49.038;8.710;2023-07-28T14:35:10;22.00;99.90
10123;DHT22;5101;49.038;8.710;2023-07-28T14:37:35;21.90;99.90
10123;DHT22;5101;49.038;8.710;2023-07-28T14:40:01;21.90;99.90
10123;DHT22;5101;49.038;8.710;2023-07-28T14:42:26;21.90;99.90
10123;DHT22;5101;49.038;8.710;2023-07-28T14:44:52;21.80;99.90
10123;DHT22;5101;49.038;8.710;2023-07-28T14:47:17;21.80;99.90
10123;DHT22;5101;49.038;8.710;2023-07-28T14:49:43;21.80;99.90
10123;DHT22;5101;49.038;8.710;2023-07-28T14:52:09;21.70;99.90
10123;DHT22;5101;49.038;8.710;2023-07-28T14:54:35;21.70;99.90
10123;DHT22;5101;49.038;8.710;2023-07-28T14:57:00;21.60;99.90
10123;DHT22;5101;49.038;8.710;2023-07-28T14:59:26;21.60;99.90
10123;DHT22;5101;49.038;8.710;2023-07-28T15:01:51;21.50;99.90
10123;DHT22;5101;49.038;8.710;2023-07-28T15:04:17;21.50;99.90
10123;DHT22;5101;49.038;8.710;2023-07-28T15:06:42;21.50;99.90
10123;DHT22;5101;49.038;8.710;2023-07-28T15:09:07;21.50;99.90
10123;DHT22;5101;49.038;8.710;2023-07-28T15:11:33;21.50;99.90
10123;DHT22;5101;49.038;8.710;2023-07-28T15:13:58;21.50;99.90
10123;DHT22;5101;49.038;8.710;2023-07-28T15:16:24;21.50;99.90
10123;DHT22;5101;49.038;8.710;2023-07-28T15:18:50;21.50;99.90
10123;DHT22;5101;49.038;8.710;2023-07-28T15:21:15;21.50;99.90
10123;DHT22;5101;49.038;8.710;2023-07-28T15:23:41;21.50;99.90
10123;DHT22;5101;49.038;8.710;2023-07-28T15:26:06;21.50;99.90
10123;DHT22;5101;49.038;8.710;2023-07-28T15:28:32;21.40;99.90
10123;DHT22;5101;49.038;8.710;2023-07-28T15:30:57;21.50;99.90
10123;DHT22;5101;49.038;8.710;2023-07-28T15:33:23;21.40;99.90
10123;DHT22;5101;49.038;8.710;2023-07-28T15:35:50;21.40;99.90
10123;DHT22;5101;49.038;8.710;2023-07-28T15:38:16;21.40;99.90
10123;DHT22;5101;49.038;8.710;2023-07-28T15:40:41;21.40;99.90
10123;DHT22;5101;49.038;8.710;2023-07-28T15:43:07;21.30;99.90
10123;DHT22;5101;49.038;8.710;2023-07-28T15:45:32;21.30;99.90